Time,TemperatureF,DewpointF,PressureIn,WindDirection,WindDirectionDegrees,WindSpeedMPH,WindSpeedGustMPH,Humidity,HourlyPrecipIn,Conditions,Clouds,dailyrainin,SoftwareType,DateUTC
2013-09-21 00:02:00,79.0,55.9,29.88,SW,225,3.0,5.0,45,0.00,,SKC,0.00,VWS V14.01,2013-09-21 07:02:00,
2013-09-21 00:07:00,79.0,55.9,29.88,South,180,4.0,5.0,45,0.00,,SKC,0.00,VWS V14.01,2013-09-21 07:07:00,
2013-09-21 00:12:00,79.0,55.9,29.88,SSW,202,5.0,5.0,45,0.00,,SKC,0.00,VWS V14.01,2013-09-21 07:12:00,
2013-09-21 00:17:00,79.0,55.9,29.88,SW,225,3.0,5.0,45,0.00,,SKC,0.00,VWS V14.01,2013-09-21 07:17:00,
2013-09-21 00:22:00,79.0,55.9,29.88,SSW,202,2.0,3.0,45,0.00,,SKC,0.00,VWS V14.01,2013-09-21 07:22:00,
2013-09-21 00:27:00,79.0,55.2,29.87,WSW,248,3.0,5.0,44,0.00,,SKC,0.00,VWS V14.01,2013-09-21 07:27:00,
2013-09-21 00:32:00,79.0,54.6,29.87,South,180,8.0,9.0,43,0.00,,SKC,0.00,VWS V14.01,2013-09-21 07:32:00,
2013-09-21 00:37:00,80.0,55.5,29.87,SSE,158,10.0,11.0,43,0.00,,SKC,0.00,VWS V14.01,2013-09-21 07:37:00,
2013-09-21 00:42:00,80.0,55.5,29.87,South,180,8.0,13.0,43,0.00,,SKC,0.00,VWS V14.01,2013-09-21 07:42:00,
2013-09-21 00:47:00,80.0,55.5,29.87,SSE,158,10.0,12.0,43,0.00,,SKC,0.00,VWS V14.01,2013-09-21 07:47:00,
2013-09-21 00:52:00,80.0,55.5,29.87,South,180,10.0,10.0,43,0.00,,SKC,0.00,VWS V14.01,2013-09-21 07:52:00,
2013-09-21 00:57:00,80.0,55.5,29.87,South,180,5.0,6.0,43,0.00,,SKC,0.00,VWS V14.01,2013-09-21 07:57:00,
2013-09-21 01:02:00,80.0,55.5,29.87,South,180,2.0,3.0,43,0.00,,SKC,0.00,VWS V14.01,2013-09-21 08:02:00,
2013-09-21 01:07:00,79.0,54.6,29.87,SSE,158,6.0,8.0,43,0.00,,SKC,0.00,VWS V14.01,2013-09-21 08:07:00,
2013-09-21 01:12:00,79.0,54.6,29.87,SSE,158,4.0,6.0,43,0.00,,SKC,0.00,VWS V14.01,2013-09-21 08:12:00,
2013-09-21 01:17:00,79.0,55.2,29.87,South,180,3.0,4.0,44,0.00,,SKC,0.00,VWS V14.01,2013-09-21 08:17:00,
2013-09-21 01:22:00,79.0,55.2,29.87,South,180,3.0,3.0,44,0.00,,SKC,0.00,VWS V14.01,2013-09-21 08:22:00,
2013-09-21 01:27:00,79.0,55.9,29.87,South,180,2.0,2.0,45,0.00,,SKC,0.00,VWS V14.01,2013-09-21 08:27:00,
2013-09-21 01:32:00,78.0,55.6,29.87,SSE,158,0.0,0.0,46,0.00,,SKC,0.00,VWS V14.01,2013-09-21 08:32:00,
2013-09-21 01:37:00,78.0,55.6,29.87,SSE,158,0.0,0.0,46,0.00,,SKC,0.00,VWS V14.01,2013-09-21 08:37:00,
2013-09-21 01:42:00,77.0,55.2,29.87,SSE,158,1.0,1.0,47,0.00,,SKC,0.00,VWS V14.01,2013-09-21 08:42:00,
2013-09-21 01:47:00,77.0,55.8,29.87,SSE,158,0.0,0.0,48,0.00,,SKC,0.00,VWS V14.01,2013-09-21 08:47:00,
2013-09-21 01:52:00,76.0,54.9,29.86,SSW,202,1.0,2.0,48,0.00,,SKC,0.00,VWS V14.01,2013-09-21 08:52:00,
2013-09-21 01:57:00,76.0,54.9,29.87,SSE,158,1.0,2.0,48,0.00,,SKC,0.00,VWS V14.01,2013-09-21 08:57:00,
2013-09-21 02:02:00,77.0,55.8,29.86,SSW,202,6.0,6.0,48,0.00,,SKC,0.00,VWS V14.01,2013-09-21 09:02:00,
2013-09-21 02:07:00,77.0,55.2,29.86,SSE,158,6.0,6.0,47,0.00,,SKC,0.00,VWS V14.01,2013-09-21 09:07:00,
2013-09-21 02:12:00,78.0,55.0,29.86,SSE,158,6.0,6.0,45,0.00,,SKC,0.00,VWS V14.01,2013-09-21 09:12:00,
2013-09-21 02:17:00,78.0,55.0,29.86,SW,225,5.0,6.0,45,0.00,,SKC,0.00,VWS V14.01,2013-09-21 09:17:00,
2013-09-21 02:22:00,78.0,55.0,29.86,NE,45,5.0,5.0,45,0.00,,SKC,0.00,VWS V14.01,2013-09-21 09:22:00,
2013-09-21 02:27:00,78.0,55.0,29.86,WSW,248,5.0,6.0,45,0.00,,SKC,0.00,VWS V14.01,2013-09-21 09:27:00,
2013-09-21 02:32:00,78.0,55.6,29.86,South,180,5.0,6.0,46,0.00,,SKC,0.00,VWS V14.01,2013-09-21 09:32:00,
2013-09-21 02:37:00,78.0,55.6,29.86,SSE,158,5.0,5.0,46,0.00,,SKC,0.00,VWS V14.01,2013-09-21 09:37:00,
2013-09-21 02:42:00,77.0,54.7,29.86,SW,225,5.0,5.0,46,0.00,,SKC,0.00,VWS V14.01,2013-09-21 09:42:00,
2013-09-21 02:47:00,77.0,55.2,29.86,SSE,158,3.0,4.0,47,0.00,,SKC,0.00,VWS V14.01,2013-09-21 09:47:00,
2013-09-21 02:52:00,77.0,55.8,29.87,SSE,158,3.0,4.0,48,0.00,,SKC,0.00,VWS V14.01,2013-09-21 09:52:00,
2013-09-21 02:57:00,76.0,54.9,29.87,South,180,4.0,4.0,48,0.00,,SKC,0.00,VWS V14.01,2013-09-21 09:57:00,
2013-09-21 03:02:00,76.0,55.5,29.87,SSE,158,5.0,5.0,49,0.00,,SKC,0.00,VWS V14.01,2013-09-21 10:02:00,
2013-09-21 03:07:00,76.0,55.5,29.87,SE,135,2.0,2.0,49,0.00,,SKC,0.00,VWS V14.01,2013-09-21 10:07:00,
2013-09-21 03:12:00,76.0,55.5,29.87,SE,135,1.0,2.0,49,0.00,,SKC,0.00,VWS V14.01,2013-09-21 10:12:00,
2013-09-21 03:17:00,76.0,55.5,29.87,ESE,112,0.0,1.0,49,0.00,,SKC,0.00,VWS V14.01,2013-09-21 10:17:00,
2013-09-21 03:22:00,75.0,54.6,29.87,ENE,68,2.0,2.0,49,0.00,,SKC,0.00,VWS V14.01,2013-09-21 10:22:00,
2013-09-21 03:27:00,75.0,55.1,29.87,ENE,68,1.0,1.0,50,0.00,,SKC,0.00,VWS V14.01,2013-09-21 10:27:00,
2013-09-21 03:32:00,75.0,55.1,29.87,ENE,68,0.0,0.0,50,0.00,,SKC,0.00,VWS V14.01,2013-09-21 10:32:00,
2013-09-21 03:37:00,75.0,55.7,29.87,ENE,68,1.0,1.0,51,0.00,,SKC,0.00,VWS V14.01,2013-09-21 10:37:00,
2013-09-21 03:42:00,74.0,55.3,29.87,ENE,68,0.0,1.0,52,0.00,,SKC,0.00,VWS V14.01,2013-09-21 10:42:00,
2013-09-21 03:47:00,74.0,55.3,29.87,NE,45,1.0,1.0,52,0.00,,SKC,0.00,VWS V14.01,2013-09-21 10:47:00,
2013-09-21 03:52:00,74.0,55.3,29.87,NE,45,1.0,1.0,52,0.00,,SKC,0.00,VWS V14.01,2013-09-21 10:52:00,
2013-09-21 03:57:00,74.0,54.7,29.87,ENE,68,1.0,1.0,51,0.00,,SKC,0.00,VWS V14.01,2013-09-21 10:57:00,
2013-09-21 04:02:00,74.0,55.3,29.87,ENE,68,1.0,1.0,52,0.00,,SKC,0.00,VWS V14.01,2013-09-21 11:02:00,
2013-09-21 04:07:00,74.0,55.3,29.87,ENE,68,2.0,2.0,52,0.00,,SKC,0.00,VWS V14.01,2013-09-21 11:07:00,
2013-09-21 04:12:00,73.0,55.4,29.87,ENE,68,3.0,3.0,54,0.00,,SKC,0.00,VWS V14.01,2013-09-21 11:12:00,
2013-09-21 04:17:00,72.0,55.0,29.87,ENE,68,3.0,3.0,55,0.00,,SKC,0.00,VWS V14.01,2013-09-21 11:17:00,
2013-09-21 04:22:00,72.0,55.0,29.87,NE,45,1.0,1.0,55,0.00,,SKC,0.00,VWS V14.01,2013-09-21 11:22:00,
2013-09-21 04:27:00,71.0,54.5,29.87,ENE,68,0.0,1.0,56,0.00,,SKC,0.00,VWS V14.01,2013-09-21 11:27:00,
2013-09-21 04:32:00,71.0,55.0,29.87,NE,45,2.0,2.0,57,0.00,,SKC,0.00,VWS V14.01,2013-09-21 11:32:00,
2013-09-21 04:37:00,71.0,55.0,29.87,NE,45,1.0,1.0,57,0.00,,SKC,0.00,VWS V14.01,2013-09-21 11:37:00,
2013-09-21 04:42:00,71.0,55.5,29.87,ENE,68,0.0,1.0,58,0.00,,SKC,0.00,VWS V14.01,2013-09-21 11:42:00,
2013-09-21 04:47:00,71.0,55.5,29.87,NNE,22,0.0,0.0,58,0.00,,SKC,0.00,VWS V14.01,2013-09-21 11:47:00,
2013-09-21 04:52:00,70.0,55.0,29.87,East,90,0.0,0.0,59,0.00,,SKC,0.00,VWS V14.01,2013-09-21 11:52:00,
2013-09-21 04:57:00,70.0,55.0,29.87,NNE,22,0.0,0.0,59,0.00,,SKC,0.00,VWS V14.01,2013-09-21 11:57:00,
2013-09-21 05:02:00,70.0,55.0,29.87,WNW,292,2.0,3.0,59,0.00,,SKC,0.00,VWS V14.01,2013-09-21 12:02:00,
2013-09-21 05:07:00,70.0,55.0,29.87,WNW,292,1.0,1.0,59,0.00,,SKC,0.00,VWS V14.01,2013-09-21 12:07:00,
2013-09-21 05:12:00,70.0,55.0,29.87,NE,45,0.0,0.0,59,0.00,,SKC,0.00,VWS V14.01,2013-09-21 12:12:00,
2013-09-21 05:17:00,70.0,55.0,29.87,NE,45,2.0,3.0,59,0.00,,SKC,0.00,VWS V14.01,2013-09-21 12:17:00,
2013-09-21 05:22:00,71.0,56.0,29.88,NE,45,0.0,0.0,59,0.00,,SKC,0.00,VWS V14.01,2013-09-21 12:22:00,
2013-09-21 05:27:00,71.0,55.5,29.88,SSE,158,3.0,3.0,58,0.00,,SKC,0.00,VWS V14.01,2013-09-21 12:27:00,
2013-09-21 05:32:00,70.0,55.0,29.88,SSE,158,1.0,2.0,59,0.00,,SKC,0.00,VWS V14.01,2013-09-21 12:32:00,
2013-09-21 05:38:00,70.0,55.0,29.88,ESE,112,1.0,2.0,59,0.00,,SKC,0.00,VWS V14.01,2013-09-21 12:38:00,
2013-09-21 05:43:00,70.0,55.5,29.88,East,90,2.0,3.0,60,0.00,,SKC,0.00,VWS V14.01,2013-09-21 12:43:00,
2013-09-21 05:48:00,70.0,55.5,29.88,ENE,68,1.0,1.0,60,0.00,,SKC,0.00,VWS V14.01,2013-09-21 12:48:00,
2013-09-21 05:53:00,70.0,55.5,29.88,ENE,68,0.0,1.0,60,0.00,,SKC,0.00,VWS V14.01,2013-09-21 12:53:00,
2013-09-21 05:58:00,70.0,55.5,29.88,ENE,68,0.0,0.0,60,0.00,,SKC,0.00,VWS V14.01,2013-09-21 12:58:00,
2013-09-21 06:04:00,70.0,55.5,29.88,ENE,68,0.0,0.0,60,0.00,,SKC,0.00,VWS V14.01,2013-09-21 13:04:00,
2013-09-21 06:11:00,69.0,55.0,29.88,ENE,68,1.0,1.0,61,0.00,,SKC,0.00,VWS V14.01,2013-09-21 13:11:00,
2013-09-21 06:17:00,69.0,55.0,29.89,ENE,68,0.0,0.0,61,0.00,,SKC,0.00,VWS V14.01,2013-09-21 13:17:00,
2013-09-21 06:23:00,69.0,55.5,29.89,ENE,68,1.0,1.0,62,0.00,,SKC,0.00,VWS V14.01,2013-09-21 13:23:00,
2013-09-21 06:28:00,69.0,55.5,29.89,East,90,1.0,1.0,62,0.00,,SKC,0.00,VWS V14.01,2013-09-21 13:28:00,
2013-09-21 06:33:00,69.0,55.5,29.89,East,90,1.0,2.0,62,0.00,,SKC,0.00,VWS V14.01,2013-09-21 13:33:00,
2013-09-21 06:38:00,69.0,55.5,29.89,East,90,0.0,0.0,62,0.00,,SKC,0.00,VWS V14.01,2013-09-21 13:38:00,
2013-09-21 06:44:00,69.0,55.5,29.89,ENE,68,1.0,1.0,62,0.00,,SKC,0.00,VWS V14.01,2013-09-21 13:44:00,
2013-09-21 06:49:00,70.0,56.4,29.89,NW,315,0.0,1.0,62,0.00,,SKC,0.00,VWS V14.01,2013-09-21 13:49:00,
2013-09-21 06:54:00,70.0,56.0,29.89,NNE,22,3.0,3.0,61,0.00,,SKC,0.00,VWS V14.01,2013-09-21 13:54:00,
2013-09-21 06:59:00,71.0,56.4,29.89,ENE,68,1.0,2.0,60,0.00,,SKC,0.00,VWS V14.01,2013-09-21 13:59:00,
2013-09-21 07:04:00,71.0,56.4,29.89,North,0,3.0,5.0,60,0.00,,SKC,0.00,VWS V14.01,2013-09-21 14:04:00,
2013-09-21 07:10:00,72.0,56.9,29.89,NNE,22,3.0,3.0,59,0.00,,SKC,0.00,VWS V14.01,2013-09-21 14:10:00,
2013-09-21 07:15:00,72.0,56.4,29.89,NNE,22,2.0,3.0,58,0.00,,SKC,0.00,VWS V14.01,2013-09-21 14:15:00,
2013-09-21 07:20:00,73.0,56.9,29.89,NNW,338,1.0,1.0,57,0.00,,SKC,0.00,VWS V14.01,2013-09-21 14:20:00,
2013-09-21 07:25:00,73.0,56.9,29.90,East,90,2.0,3.0,57,0.00,,SKC,0.00,VWS V14.01,2013-09-21 14:25:00,
2013-09-21 07:30:00,74.0,56.8,29.90,ENE,68,1.0,2.0,55,0.00,,SKC,0.00,VWS V14.01,2013-09-21 14:30:00,
2013-09-21 07:36:00,75.0,57.8,29.90,ESE,112,1.0,1.0,55,0.00,,SKC,0.00,VWS V14.01,2013-09-21 14:36:00,
2013-09-21 07:41:00,75.0,57.2,29.90,SSE,158,1.0,1.0,54,0.00,,SKC,0.00,VWS V14.01,2013-09-21 14:41:00,
2013-09-21 07:46:00,76.0,57.7,29.90,ESE,112,1.0,1.0,53,0.00,,SKC,0.00,VWS V14.01,2013-09-21 14:46:00,
2013-09-21 07:51:00,76.0,57.7,29.90,ESE,112,1.0,2.0,53,0.00,,SKC,0.00,VWS V14.01,2013-09-21 14:51:00,
2013-09-21 07:56:00,77.0,58.0,29.90,SSE,158,2.0,2.0,52,0.00,,SKC,0.00,VWS V14.01,2013-09-21 14:56:00,
2013-09-21 08:02:00,77.0,57.5,29.90,East,90,1.0,1.0,51,0.00,,SKC,0.00,VWS V14.01,2013-09-21 15:02:00,
2013-09-21 08:07:00,77.0,57.5,29.90,ESE,112,1.0,1.0,51,0.00,,SKC,0.00,VWS V14.01,2013-09-21 15:07:00,
2013-09-21 08:12:00,78.0,57.9,29.90,ESE,112,3.0,3.0,50,0.00,,SKC,0.00,VWS V14.01,2013-09-21 15:12:00,
2013-09-21 08:17:00,78.0,57.9,29.90,ESE,112,2.0,3.0,50,0.00,,SKC,0.00,VWS V14.01,2013-09-21 15:17:00,
2013-09-21 08:23:00,79.0,57.7,29.89,East,90,3.0,4.0,48,0.00,,SKC,0.00,VWS V14.01,2013-09-21 15:23:00,
2013-09-21 08:29:00,79.0,57.1,29.90,SSE,158,2.0,2.0,47,0.00,,SKC,0.00,VWS V14.01,2013-09-21 15:29:00,
2013-09-21 08:34:00,80.0,56.8,29.89,SE,135,1.0,2.0,45,0.00,,SKC,0.00,VWS V14.01,2013-09-21 15:34:00,
2013-09-21 08:39:00,80.0,56.8,29.90,SE,135,4.0,4.0,45,0.00,,SKC,0.00,VWS V14.01,2013-09-21 15:39:00,
2013-09-21 08:44:00,80.0,56.2,29.90,East,90,3.0,3.0,44,0.00,,SKC,0.00,VWS V14.01,2013-09-21 15:44:00,
2013-09-21 08:50:00,81.0,57.1,29.89,ESE,112,4.0,4.0,44,0.00,,SKC,0.00,VWS V14.01,2013-09-21 15:50:00,
2013-09-21 08:56:00,82.0,57.3,29.89,SSW,202,1.0,1.0,43,0.00,,SKC,0.00,VWS V14.01,2013-09-21 15:56:00,
2013-09-21 09:02:00,83.0,57.6,29.90,South,180,1.0,2.0,42,0.00,,SKC,0.00,VWS V14.01,2013-09-21 16:02:00,
2013-09-21 09:07:00,83.0,56.9,29.90,SSW,202,5.0,5.0,41,0.00,,SKC,0.00,VWS V14.01,2013-09-21 16:07:00,
2013-09-21 09:12:00,84.0,57.8,29.90,SW,225,5.0,5.0,41,0.00,,SKC,0.00,VWS V14.01,2013-09-21 16:12:00,
2013-09-21 09:17:00,84.0,57.8,29.90,SSE,158,3.0,3.0,41,0.00,,SKC,0.00,VWS V14.01,2013-09-21 16:17:00,
2013-09-21 09:23:00,85.0,58.0,29.90,SSE,158,3.0,3.0,40,0.00,,SKC,0.00,VWS V14.01,2013-09-21 16:23:00,
2013-09-21 09:29:00,86.0,58.2,29.89,SSW,202,5.0,6.0,39,0.00,,SKC,0.00,VWS V14.01,2013-09-21 16:29:00,
2013-09-21 09:35:00,86.0,58.2,29.89,SSE,158,6.0,8.0,39,0.00,,SKC,0.00,VWS V14.01,2013-09-21 16:35:00,
2013-09-21 09:40:00,88.0,58.5,29.89,South,180,4.0,4.0,37,0.00,,SKC,0.00,VWS V14.01,2013-09-21 16:40:00,
2013-09-21 09:45:00,88.0,58.5,29.89,SSW,202,7.0,8.0,37,0.00,,SKC,0.00,VWS V14.01,2013-09-21 16:45:00,
2013-09-21 09:50:00,89.0,58.6,29.89,SW,225,3.0,5.0,36,0.00,,SKC,0.00,VWS V14.01,2013-09-21 16:50:00,
2013-09-21 09:56:00,89.0,57.8,29.89,South,180,3.0,6.0,35,0.00,,SKC,0.00,VWS V14.01,2013-09-21 16:56:00,
2013-09-21 10:02:00,90.0,58.7,29.89,South,180,10.0,10.0,35,0.00,,SKC,0.00,VWS V14.01,2013-09-21 17:02:00,
2013-09-21 10:07:00,89.0,57.8,29.89,SE,135,11.0,11.0,35,0.00,,SKC,0.00,VWS V14.01,2013-09-21 17:07:00,
2013-09-21 10:12:00,89.0,57.8,29.89,East,90,6.0,6.0,35,0.00,,SKC,0.00,VWS V14.01,2013-09-21 17:12:00,
2013-09-21 10:17:00,90.0,57.9,29.89,South,180,14.0,14.0,34,0.00,,SKC,0.00,VWS V14.01,2013-09-21 17:17:00,
2013-09-21 10:23:00,90.0,57.9,29.89,SSE,158,7.0,10.0,34,0.00,,SKC,0.00,VWS V14.01,2013-09-21 17:23:00,
2013-09-21 10:29:00,91.0,57.9,29.89,SSE,158,7.0,10.0,33,0.00,,SKC,0.00,VWS V14.01,2013-09-21 17:29:00,
2013-09-21 10:34:00,91.0,57.9,29.89,SSW,202,4.0,7.0,33,0.00,,SKC,0.00,VWS V14.01,2013-09-21 17:34:00,
2013-09-21 10:39:00,92.0,57.9,29.89,SSW,202,5.0,6.0,32,0.00,,SKC,0.00,VWS V14.01,2013-09-21 17:39:00,
2013-09-21 10:44:00,92.0,57.9,29.89,South,180,11.0,11.0,32,0.00,,SKC,0.00,VWS V14.01,2013-09-21 17:44:00,
2013-09-21 10:50:00,93.0,57.0,29.88,SSE,158,5.0,6.0,30,0.00,,SKC,0.00,VWS V14.01,2013-09-21 17:50:00,
2013-09-21 10:56:00,93.0,57.0,29.88,SW,225,5.0,5.0,30,0.00,,SKC,0.00,VWS V14.01,2013-09-21 17:56:00,
2013-09-21 11:01:00,94.0,56.0,29.88,SSE,158,8.0,8.0,28,0.00,,SKC,0.00,VWS V14.01,2013-09-21 18:01:00,
2013-09-21 11:06:00,93.0,56.1,29.88,SSE,158,10.0,10.0,29,0.00,,SKC,0.00,VWS V14.01,2013-09-21 18:06:00,
2013-09-21 11:11:00,93.0,57.0,29.88,SE,135,6.0,7.0,30,0.00,,SKC,0.00,VWS V14.01,2013-09-21 18:11:00,
2013-09-21 11:17:00,93.0,57.0,29.88,SSW,202,6.0,8.0,30,0.00,,SKC,0.00,VWS V14.01,2013-09-21 18:17:00,
2013-09-21 11:23:00,93.0,57.0,29.87,SSE,158,4.0,5.0,30,0.00,,SKC,0.00,VWS V14.01,2013-09-21 18:23:00,
2013-09-21 11:28:00,94.0,56.9,29.87,SSW,202,4.0,8.0,29,0.00,,SKC,0.00,VWS V14.01,2013-09-21 18:28:00,
2013-09-21 11:33:00,94.0,56.9,29.87,SSE,158,10.0,12.0,29,0.00,,SKC,0.00,VWS V14.01,2013-09-21 18:33:00,
2013-09-21 11:38:00,94.0,56.9,29.87,SSW,202,2.0,3.0,29,0.00,,SKC,0.00,VWS V14.01,2013-09-21 18:38:00,
2013-09-21 11:43:00,94.0,56.9,29.87,SW,225,4.0,4.0,29,0.00,,SKC,0.00,VWS V14.01,2013-09-21 18:43:00,
2013-09-21 11:49:00,94.0,56.0,29.87,ESE,112,10.0,10.0,28,0.00,,SKC,0.00,VWS V14.01,2013-09-21 18:49:00,
2013-09-21 11:55:00,94.0,56.0,29.86,WSW,248,5.0,7.0,28,0.00,,SKC,0.00,VWS V14.01,2013-09-21 18:55:00,
2013-09-21 12:00:00,93.0,56.1,29.86,SSE,158,8.0,10.0,29,0.00,,SKC,0.00,VWS V14.01,2013-09-21 19:00:00,
2013-09-21 12:05:00,94.0,56.0,29.86,SE,135,7.0,8.0,28,0.00,,SKC,0.00,VWS V14.01,2013-09-21 19:05:00,
2013-09-21 12:10:00,95.0,56.8,29.86,SSE,158,13.0,13.0,28,0.00,,SKC,0.00,VWS V14.01,2013-09-21 19:10:00,
2013-09-21 12:16:00,95.0,55.8,29.86,WSW,248,5.0,9.0,27,0.00,,SKC,0.00,VWS V14.01,2013-09-21 19:16:00,
2013-09-21 12:22:00,95.0,55.8,29.86,SSE,158,6.0,7.0,27,0.00,,SKC,0.00,VWS V14.01,2013-09-21 19:22:00,
2013-09-21 12:27:00,95.0,55.8,29.85,SW,225,5.0,6.0,27,0.00,,SKC,0.00,VWS V14.01,2013-09-21 19:27:00,
2013-09-21 12:32:00,96.0,56.7,29.85,SW,225,4.0,4.0,27,0.00,,SKC,0.00,VWS V14.01,2013-09-21 19:32:00,
2013-09-21 12:37:00,95.0,55.8,29.85,SW,225,2.0,2.0,27,0.00,,SKC,0.00,VWS V14.01,2013-09-21 19:37:00,
2013-09-21 12:42:00,96.0,55.6,29.84,SSE,158,11.0,11.0,26,0.00,,SKC,0.00,VWS V14.01,2013-09-21 19:42:00,
2013-09-21 12:48:00,96.0,55.6,29.84,SSE,158,5.0,5.0,26,0.00,,SKC,0.00,VWS V14.01,2013-09-21 19:48:00,
2013-09-21 12:54:00,95.0,54.8,29.84,SW,225,3.0,4.0,26,0.00,,SKC,0.00,VWS V14.01,2013-09-21 19:54:00,
2013-09-21 13:00:00,94.0,55.0,29.84,ESE,112,4.0,5.0,27,0.00,,SKC,0.00,VWS V14.01,2013-09-21 20:00:00,
2013-09-21 13:05:00,94.0,55.0,29.83,SSE,158,6.0,6.0,27,0.00,,SKC,0.00,VWS V14.01,2013-09-21 20:05:00,
2013-09-21 13:10:00,94.0,53.9,29.83,WNW,292,3.0,5.0,26,0.00,,SKC,0.00,VWS V14.01,2013-09-21 20:10:00,
2013-09-21 13:15:00,95.0,54.8,29.82,SSE,158,6.0,6.0,26,0.00,,SKC,0.00,VWS V14.01,2013-09-21 20:15:00,
2013-09-21 13:20:00,96.0,53.4,29.82,SSW,202,1.0,2.0,24,0.00,,SKC,0.00,VWS V14.01,2013-09-21 20:20:00,
2013-09-21 13:26:00,97.0,55.4,29.82,SW,225,5.0,10.0,25,0.00,,SKC,0.00,VWS V14.01,2013-09-21 20:26:00,
2013-09-21 13:32:00,97.0,54.3,29.82,SSE,158,4.0,4.0,24,0.00,,SKC,0.00,VWS V14.01,2013-09-21 20:32:00,
2013-09-21 13:37:00,98.0,55.1,29.81,SSW,202,4.0,4.0,24,0.00,,SKC,0.00,VWS V14.01,2013-09-21 20:37:00,
2013-09-21 13:42:00,97.0,54.3,29.81,SE,135,6.0,8.0,24,0.00,,SKC,0.00,VWS V14.01,2013-09-21 20:42:00,
2013-09-21 13:47:00,97.0,55.4,29.81,SSW,202,6.0,6.0,25,0.00,,SKC,0.00,VWS V14.01,2013-09-21 20:47:00,
2013-09-21 13:52:00,97.0,54.3,29.81,SE,135,6.0,8.0,24,0.00,,SKC,0.00,VWS V14.01,2013-09-21 20:52:00,
2013-09-21 13:57:00,96.0,54.5,29.80,SSE,158,3.0,3.0,25,0.00,,SKC,0.00,VWS V14.01,2013-09-21 20:57:00,
2013-09-21 14:03:00,96.0,54.5,29.80,SE,135,8.0,8.0,25,0.00,,SKC,0.00,VWS V14.01,2013-09-21 21:03:00,
2013-09-21 14:08:00,96.0,55.6,29.80,SE,135,6.0,8.0,26,0.00,,SKC,0.00,VWS V14.01,2013-09-21 21:08:00,
2013-09-21 14:13:00,96.0,54.5,29.80,SE,135,6.0,8.0,25,0.00,,SKC,0.00,VWS V14.01,2013-09-21 21:13:00,
2013-09-21 14:18:00,97.0,54.3,29.80,SSE,158,10.0,11.0,24,0.00,,SKC,0.00,VWS V14.01,2013-09-21 21:18:00,
2013-09-21 14:23:00,96.0,53.4,29.79,SSE,158,8.0,10.0,24,0.00,,SKC,0.00,VWS V14.01,2013-09-21 21:23:00,
2013-09-21 14:29:00,97.0,54.3,29.79,West,270,9.0,10.0,24,0.00,,SKC,0.00,VWS V14.01,2013-09-21 21:29:00,
2013-09-21 14:34:00,96.0,53.4,29.79,ESE,112,6.0,7.0,24,0.00,,SKC,0.00,VWS V14.01,2013-09-21 21:34:00,
2013-09-21 14:39:00,95.0,52.6,29.79,SE,135,8.0,10.0,24,0.00,,SKC,0.00,VWS V14.01,2013-09-21 21:39:00,
2013-09-21 14:44:00,95.0,52.6,29.79,SSE,158,10.0,10.0,24,0.00,,SKC,0.00,VWS V14.01,2013-09-21 21:44:00,
2013-09-21 14:49:00,95.0,52.6,29.78,SSE,158,8.0,10.0,24,0.00,,SKC,0.00,VWS V14.01,2013-09-21 21:49:00,
2013-09-21 14:55:00,96.0,53.4,29.78,SE,135,8.0,11.0,24,0.00,,SKC,0.00,VWS V14.01,2013-09-21 21:55:00,
2013-09-21 15:01:00,96.0,53.4,29.78,SSE,158,5.0,7.0,24,0.00,,SKC,0.00,VWS V14.01,2013-09-21 22:01:00,
2013-09-21 15:06:00,97.0,53.1,29.77,ENE,68,7.0,10.0,23,0.00,,SKC,0.00,VWS V14.01,2013-09-21 22:06:00,
2013-09-21 15:11:00,96.0,52.3,29.77,SSE,158,7.0,7.0,23,0.00,,SKC,0.00,VWS V14.01,2013-09-21 22:11:00,
2013-09-21 15:16:00,96.0,52.3,29.77,SSE,158,8.0,11.0,23,0.00,,SKC,0.00,VWS V14.01,2013-09-21 22:16:00,
2013-09-21 15:22:00,95.0,52.6,29.77,SSE,158,8.0,10.0,24,0.00,,SKC,0.00,VWS V14.01,2013-09-21 22:22:00,
2013-09-21 15:27:00,94.0,52.9,29.77,SE,135,3.0,3.0,25,0.00,,SKC,0.00,VWS V14.01,2013-09-21 22:27:00,
2013-09-21 15:32:00,95.0,52.6,29.77,SE,135,4.0,4.0,24,0.00,,SKC,0.00,VWS V14.01,2013-09-21 22:32:00,
2013-09-21 15:37:00,97.0,53.1,29.76,WSW,248,3.0,3.0,23,0.00,,SKC,0.00,VWS V14.01,2013-09-21 22:37:00,
2013-09-21 15:42:00,97.0,53.1,29.76,ESE,112,5.0,5.0,23,0.00,,SKC,0.00,VWS V14.01,2013-09-21 22:42:00,
2013-09-21 15:47:00,96.0,52.3,29.76,SSE,158,8.0,8.0,23,0.00,,SKC,0.00,VWS V14.01,2013-09-21 22:47:00,
2013-09-21 15:52:00,95.0,52.6,29.76,SSE,158,5.0,6.0,24,0.00,,SKC,0.00,VWS V14.01,2013-09-21 22:52:00,
2013-09-21 15:57:00,94.0,51.8,29.76,SE,135,5.0,6.0,24,0.00,,SKC,0.00,VWS V14.01,2013-09-21 22:57:00,
2013-09-21 16:02:00,94.0,51.8,29.75,SSE,158,6.0,6.0,24,0.00,,SKC,0.00,VWS V14.01,2013-09-21 23:02:00,
2013-09-21 16:07:00,94.0,51.8,29.75,SE,135,6.0,8.0,24,0.00,,SKC,0.00,VWS V14.01,2013-09-21 23:07:00,
2013-09-21 16:12:00,93.0,52.0,29.75,SSE,158,10.0,10.0,25,0.00,,SKC,0.00,VWS V14.01,2013-09-21 23:12:00,
2013-09-21 16:17:00,93.0,52.0,29.75,East,90,5.0,6.0,25,0.00,,SKC,0.00,VWS V14.01,2013-09-21 23:17:00,
2013-09-21 16:23:00,93.0,52.0,29.75,SSE,158,7.0,7.0,25,0.00,,SKC,0.00,VWS V14.01,2013-09-21 23:23:00,
2013-09-21 16:29:00,93.0,52.0,29.75,SSE,158,7.0,7.0,25,0.00,,SKC,0.00,VWS V14.01,2013-09-21 23:29:00,
2013-09-21 16:34:00,93.0,52.0,29.75,SSE,158,5.0,6.0,25,0.00,,SKC,0.00,VWS V14.01,2013-09-21 23:34:00,
2013-09-21 16:39:00,93.0,52.0,29.75,ESE,112,6.0,6.0,25,0.00,,SKC,0.00,VWS V14.01,2013-09-21 23:39:00,
2013-09-21 16:44:00,93.0,52.0,29.75,SSE,158,5.0,5.0,25,0.00,,SKC,0.00,VWS V14.01,2013-09-21 23:44:00,
2013-09-21 16:49:00,93.0,52.0,29.75,SSE,158,5.0,5.0,25,0.00,,SKC,0.00,VWS V14.01,2013-09-21 23:49:00,
2013-09-21 16:54:00,93.0,52.0,29.74,SSE,158,6.0,7.0,25,0.00,,SKC,0.00,VWS V14.01,2013-09-21 23:54:00,
2013-09-21 16:59:00,93.0,52.0,29.74,SSE,158,3.0,4.0,25,0.00,,SKC,0.00,VWS V14.01,2013-09-21 23:59:00,
2013-09-21 17:04:00,93.0,52.0,29.74,SSE,158,5.0,6.0,25,0.00,,SKC,0.00,VWS V14.01,2013-09-22 00:04:00,
2013-09-21 17:09:00,93.0,52.0,29.74,SE,135,8.0,10.0,25,0.00,,SKC,0.00,VWS V14.01,2013-09-22 00:09:00,
2013-09-21 17:15:00,92.0,51.2,29.74,SSE,158,6.0,6.0,25,0.00,,SKC,0.00,VWS V14.01,2013-09-22 00:15:00,
2013-09-21 17:20:00,92.0,51.2,29.74,SE,135,6.0,6.0,25,0.00,,SKC,0.00,VWS V14.01,2013-09-22 00:20:00,
2013-09-21 17:25:00,92.0,51.2,29.74,SE,135,7.0,7.0,25,0.00,,SKC,0.00,VWS V14.01,2013-09-22 00:25:00,
2013-09-21 17:30:00,92.0,51.2,29.74,South,180,6.0,7.0,25,0.00,,SKC,0.00,VWS V14.01,2013-09-22 00:30:00,
2013-09-21 17:35:00,92.0,51.2,29.74,SSE,158,3.0,4.0,25,0.00,,SKC,0.00,VWS V14.01,2013-09-22 00:35:00,
2013-09-21 17:41:00,92.0,52.2,29.74,South,180,4.0,5.0,26,0.00,,SKC,0.00,VWS V14.01,2013-09-22 00:41:00,
2013-09-21 17:46:00,92.0,51.2,29.74,SSE,158,5.0,5.0,25,0.00,,SKC,0.00,VWS V14.01,2013-09-22 00:46:00,
2013-09-21 17:51:00,92.0,52.2,29.74,ESE,112,1.0,1.0,26,0.00,,SKC,0.00,VWS V14.01,2013-09-22 00:51:00,
2013-09-21 17:56:00,92.0,52.2,29.74,WSW,248,5.0,6.0,26,0.00,,SKC,0.00,VWS V14.01,2013-09-22 00:56:00,
2013-09-21 18:01:00,91.0,54.4,29.74,WSW,248,5.0,6.0,29,0.00,,SKC,0.00,VWS V14.01,2013-09-22 01:01:00,
2013-09-21 18:06:00,91.0,54.4,29.73,NW,315,3.0,3.0,29,0.00,,SKC,0.00,VWS V14.01,2013-09-22 01:06:00,
2013-09-21 18:11:00,91.0,54.4,29.73,West,270,6.0,9.0,29,0.00,,SKC,0.00,VWS V14.01,2013-09-22 01:11:00,
2013-09-21 18:16:00,90.0,53.5,29.73,West,270,7.0,8.0,29,0.00,,SKC,0.00,VWS V14.01,2013-09-22 01:16:00,
2013-09-21 18:21:00,90.0,53.5,29.73,NW,315,3.0,4.0,29,0.00,,SKC,0.00,VWS V14.01,2013-09-22 01:21:00,
2013-09-21 18:26:00,90.0,53.5,29.73,WNW,292,5.0,7.0,29,0.00,,SKC,0.00,VWS V14.01,2013-09-22 01:26:00,
2013-09-21 18:31:00,90.0,54.4,29.73,West,270,5.0,6.0,30,0.00,,SKC,0.00,VWS V14.01,2013-09-22 01:31:00,
2013-09-21 18:36:00,90.0,54.4,29.73,WNW,292,5.0,5.0,30,0.00,,SKC,0.00,VWS V14.01,2013-09-22 01:36:00,
2013-09-21 18:41:00,90.0,54.4,29.73,WNW,292,3.0,4.0,30,0.00,,SKC,0.00,VWS V14.01,2013-09-22 01:41:00,
2013-09-21 18:46:00,90.0,54.4,29.73,NW,315,5.0,6.0,30,0.00,,SKC,0.00,VWS V14.01,2013-09-22 01:46:00,
2013-09-21 18:51:00,89.0,53.6,29.73,NW,315,3.0,3.0,30,0.00,,SKC,0.00,VWS V14.01,2013-09-22 01:51:00,
2013-09-21 18:56:00,89.0,53.6,29.73,WNW,292,3.0,3.0,30,0.00,,SKC,0.00,VWS V14.01,2013-09-22 01:56:00,
2013-09-21 19:01:00,89.0,53.6,29.73,NW,315,4.0,5.0,30,0.00,,SKC,0.00,VWS V14.01,2013-09-22 02:01:00,
2013-09-21 19:06:00,89.0,54.5,29.73,NW,315,3.0,5.0,31,0.00,,SKC,0.00,VWS V14.01,2013-09-22 02:06:00,
2013-09-21 19:11:00,89.0,54.5,29.73,NW,315,3.0,3.0,31,0.00,,SKC,0.00,VWS V14.01,2013-09-22 02:11:00,
2013-09-21 19:16:00,89.0,54.5,29.74,NW,315,3.0,3.0,31,0.00,,SKC,0.00,VWS V14.01,2013-09-22 02:16:00,
2013-09-21 19:21:00,88.0,53.6,29.74,NW,315,3.0,3.0,31,0.00,,SKC,0.00,VWS V14.01,2013-09-22 02:21:00,
2013-09-21 19:26:00,88.0,53.6,29.74,NW,315,1.0,2.0,31,0.00,,SKC,0.00,VWS V14.01,2013-09-22 02:26:00,
2013-09-21 19:31:00,88.0,53.6,29.74,NW,315,1.0,2.0,31,0.00,,SKC,0.00,VWS V14.01,2013-09-22 02:31:00,
2013-09-21 19:36:00,88.0,53.6,29.74,ENE,68,2.0,2.0,31,0.00,,SKC,0.00,VWS V14.01,2013-09-22 02:36:00,
2013-09-21 19:41:00,88.0,54.5,29.74,ENE,68,3.0,3.0,32,0.00,,SKC,0.00,VWS V14.01,2013-09-22 02:41:00,
2013-09-21 19:46:00,88.0,54.5,29.74,ENE,68,1.0,1.0,32,0.00,,SKC,0.00,VWS V14.01,2013-09-22 02:46:00,
2013-09-21 19:51:00,88.0,54.5,29.74,ENE,68,1.0,1.0,32,0.00,,SKC,0.00,VWS V14.01,2013-09-22 02:51:00,
2013-09-21 19:56:00,88.0,54.5,29.74,ENE,68,1.0,1.0,32,0.00,,SKC,0.00,VWS V14.01,2013-09-22 02:56:00,
2013-09-21 20:01:00,88.0,54.5,29.75,SSW,202,1.0,1.0,32,0.00,,SKC,0.00,VWS V14.01,2013-09-22 03:01:00,
2013-09-21 20:06:00,88.0,54.5,29.75,SSE,158,6.0,6.0,32,0.00,,SKC,0.00,VWS V14.01,2013-09-22 03:06:00,
2013-09-21 20:11:00,84.0,57.8,29.75,ESE,112,12.0,14.0,41,0.00,,SKC,0.00,VWS V14.01,2013-09-22 03:11:00,
2013-09-21 20:16:00,83.0,58.2,29.75,ENE,68,8.0,10.0,43,0.00,,SKC,0.00,VWS V14.01,2013-09-22 03:16:00,
2013-09-21 20:21:00,83.0,58.2,29.75,East,90,4.0,5.0,43,0.00,,SKC,0.00,VWS V14.01,2013-09-22 03:21:00,
2013-09-21 20:26:00,83.0,59.5,29.75,ENE,68,10.0,10.0,45,0.00,,SKC,0.00,VWS V14.01,2013-09-22 03:26:00,
2013-09-21 20:31:00,82.0,58.6,29.75,ENE,68,4.0,5.0,45,0.00,,SKC,0.00,VWS V14.01,2013-09-22 03:31:00,
2013-09-21 20:36:00,83.0,58.9,29.75,ENE,68,3.0,3.0,44,0.00,,SKC,0.00,VWS V14.01,2013-09-22 03:36:00,
2013-09-21 20:41:00,83.0,58.2,29.75,East,90,4.0,4.0,43,0.00,,SKC,0.00,VWS V14.01,2013-09-22 03:41:00,
2013-09-21 20:46:00,83.0,57.6,29.76,ENE,68,3.0,3.0,42,0.00,,SKC,0.00,VWS V14.01,2013-09-22 03:46:00,
2013-09-21 20:51:00,84.0,58.5,29.76,North,0,2.0,3.0,42,0.00,,SKC,0.00,VWS V14.01,2013-09-22 03:51:00,
2013-09-21 20:56:00,83.0,58.2,29.76,NNE,22,3.0,4.0,43,0.00,,SKC,0.00,VWS V14.01,2013-09-22 03:56:00,
2013-09-21 21:01:00,83.0,58.9,29.76,NNE,22,3.0,4.0,44,0.00,,SKC,0.00,VWS V14.01,2013-09-22 04:01:00,
2013-09-21 21:05:00,83.0,58.9,29.76,North,0,4.0,7.0,44,0.00,,SKC,0.00,VWS V14.01,2013-09-22 04:05:00,
2013-09-21 21:07:00,83.0,58.9,29.76,NNW,338,6.0,7.0,44,0.00,,SKC,0.00,VWS V14.01,2013-09-22 04:07:00,
2013-09-21 21:10:00,83.0,58.9,29.76,NW,315,8.0,8.0,44,0.00,,SKC,0.00,VWS V14.01,2013-09-22 04:10:00,
2013-09-21 21:11:00,83.0,58.9,29.76,NW,315,7.0,8.0,44,0.00,,SKC,0.00,VWS V14.01,2013-09-22 04:11:00,
2013-09-21 21:16:00,83.0,57.6,29.76,NNW,338,5.0,5.0,42,0.00,,SKC,0.00,VWS V14.01,2013-09-22 04:16:00,
2013-09-21 21:21:00,83.0,57.6,29.77,WSW,248,3.0,4.0,42,0.00,,SKC,0.00,VWS V14.01,2013-09-22 04:21:00,
2013-09-21 21:26:00,83.0,57.6,29.77,SW,225,6.0,6.0,42,0.00,,SKC,0.00,VWS V14.01,2013-09-22 04:26:00,
2013-09-21 21:31:00,83.0,56.9,29.77,WNW,292,5.0,6.0,41,0.00,,SKC,0.00,VWS V14.01,2013-09-22 04:31:00,
2013-09-21 21:36:00,84.0,57.1,29.77,NW,315,5.0,5.0,40,0.00,,SKC,0.00,VWS V14.01,2013-09-22 04:36:00,
2013-09-21 21:41:00,84.0,57.1,29.77,NE,45,0.0,0.0,40,0.00,,SKC,0.00,VWS V14.01,2013-09-22 04:41:00,
2013-09-21 21:46:00,84.0,57.1,29.77,WNW,292,1.0,1.0,40,0.00,,SKC,0.00,VWS V14.01,2013-09-22 04:46:00,
2013-09-21 21:51:00,83.0,56.2,29.77,NNW,338,3.0,3.0,40,0.00,,SKC,0.00,VWS V14.01,2013-09-22 04:51:00,
2013-09-21 21:56:00,83.0,56.2,29.77,NNW,338,0.0,0.0,40,0.00,,SKC,0.00,VWS V14.01,2013-09-22 04:56:00,
2013-09-21 22:01:00,83.0,56.2,29.77,NNW,338,0.0,1.0,40,0.00,,SKC,0.00,VWS V14.01,2013-09-22 05:01:00,
2013-09-21 22:06:00,83.0,58.2,29.77,NNW,338,0.0,0.0,43,0.00,,SKC,0.00,VWS V14.01,2013-09-22 05:06:00,
2013-09-21 22:11:00,83.0,58.2,29.77,NE,45,0.0,0.0,43,0.00,,SKC,0.00,VWS V14.01,2013-09-22 05:11:00,
2013-09-21 22:16:00,82.0,58.0,29.77,NE,45,0.0,0.0,44,0.00,,SKC,0.00,VWS V14.01,2013-09-22 05:16:00,
2013-09-21 22:21:00,82.0,58.6,29.77,ENE,68,2.0,2.0,45,0.00,,SKC,0.00,VWS V14.01,2013-09-22 05:21:00,
2013-09-21 22:27:00,81.0,57.7,29.77,ENE,68,1.0,1.0,45,0.00,,SKC,0.00,VWS V14.01,2013-09-22 05:27:00,
2013-09-21 22:32:00,81.0,58.3,29.77,NE,45,0.0,0.0,46,0.00,,SKC,0.00,VWS V14.01,2013-09-22 05:32:00,
2013-09-21 22:37:00,81.0,58.3,29.77,NE,45,0.0,1.0,46,0.00,,SKC,0.00,VWS V14.01,2013-09-22 05:37:00,
2013-09-21 22:42:00,81.0,58.3,29.77,NW,315,0.0,1.0,46,0.00,,SKC,0.00,VWS V14.01,2013-09-22 05:42:00,
2013-09-21 22:47:00,80.0,57.4,29.77,WNW,292,1.0,2.0,46,0.00,,SKC,0.00,VWS V14.01,2013-09-22 05:47:00,
2013-09-21 22:52:00,81.0,55.1,29.77,WNW,292,4.0,4.0,41,0.00,,SKC,0.00,VWS V14.01,2013-09-22 05:52:00,
2013-09-21 22:57:00,81.0,54.4,29.77,WNW,292,3.0,3.0,40,0.00,,SKC,0.00,VWS V14.01,2013-09-22 05:57:00,
2013-09-21 23:02:00,82.0,55.3,29.77,NW,315,3.0,4.0,40,0.00,,SKC,0.00,VWS V14.01,2013-09-22 06:02:00,
2013-09-21 23:07:00,81.0,54.4,29.77,NW,315,2.0,2.0,40,0.00,,SKC,0.00,VWS V14.01,2013-09-22 06:07:00,
2013-09-21 23:12:00,81.0,54.4,29.77,WNW,292,1.0,3.0,40,0.00,,SKC,0.00,VWS V14.01,2013-09-22 06:12:00,
2013-09-21 23:17:00,81.0,55.8,29.77,West,270,3.0,3.0,42,0.00,,SKC,0.00,VWS V14.01,2013-09-22 06:17:00,
2013-09-21 23:22:00,81.0,56.4,29.77,West,270,1.0,1.0,43,0.00,,SKC,0.00,VWS V14.01,2013-09-22 06:22:00,
2013-09-21 23:27:00,81.0,57.1,29.77,WNW,292,0.0,0.0,44,0.00,,SKC,0.00,VWS V14.01,2013-09-22 06:27:00,
2013-09-21 23:32:00,80.0,56.2,29.77,WNW,292,1.0,1.0,44,0.00,,SKC,0.00,VWS V14.01,2013-09-22 06:32:00,
2013-09-21 23:37:00,80.0,56.2,29.77,East,90,1.0,1.0,44,0.00,,SKC,0.00,VWS V14.01,2013-09-22 06:37:00,
2013-09-21 23:42:00,80.0,56.8,29.77,East,90,0.0,0.0,45,0.00,,SKC,0.00,VWS V14.01,2013-09-22 06:42:00,
2013-09-21 23:47:00,79.0,55.9,29.77,East,90,0.0,0.0,45,0.00,,SKC,0.00,VWS V14.01,2013-09-22 06:47:00,
2013-09-21 23:52:00,79.0,56.5,29.77,East,90,0.0,0.0,46,0.00,,SKC,0.00,VWS V14.01,2013-09-22 06:52:00,
2013-09-21 23:57:00,79.0,56.5,29.77,East,90,1.0,1.0,46,0.00,,SKC,0.00,VWS V14.01,2013-09-22 06:57:00,